createdAt,value
2018-04-22T00:02:01.020Z,20.93
2018-04-22T00:04:28.640Z,21.77
2018-04-22T00:06:56.232Z,19.70
2018-04-22T00:09:23.816Z,22.50
2018-04-22T00:11:51.428Z,20.63
2018-04-22T00:14:19.091Z,19.87
2018-04-22T00:16:46.707Z,20.30
2018-04-22T00:19:14.304Z,21.07
2018-04-22T00:21:41.923Z,21.57
2018-04-22T00:24:09.517Z,21.77
2018-04-22T00:26:37.880Z,22.97
2018-04-22T00:29:06.266Z,19.50
2018-04-22T00:31:34.653Z,21.77
2018-04-22T00:34:03.038Z,21.63
2018-04-22T00:36:30.628Z,21.00
2018-04-22T00:38:58.258Z,20.73
2018-04-22T00:41:25.852Z,19.23
2018-04-22T00:43:53.436Z,21.90
2018-04-22T00:46:21.043Z,21.03
2018-04-22T00:48:49.030Z,22.00
2018-04-22T00:51:16.654Z,22.10
2018-04-22T00:56:48.443Z,22.40
2018-04-22T00:59:16.791Z,21.63
2018-04-22T01:01:44.384Z,20.80
2018-04-22T01:04:12.759Z,23.53
2018-04-22T01:06:41.121Z,23.40
2018-04-22T01:09:08.725Z,23.60
2018-04-22T01:11:36.320Z,22.27
2018-04-22T01:14:03.939Z,23.13
2018-04-22T01:16:31.527Z,23.60
2018-04-22T01:18:59.311Z,23.00
2018-04-22T01:21:26.923Z,23.30
2018-04-22T01:23:54.520Z,24.67
2018-04-22T01:26:22.136Z,21.80
2018-04-22T01:28:50.487Z,23.43
2018-04-22T01:31:18.116Z,22.90
2018-04-22T01:33:45.706Z,22.73
2018-04-22T01:36:13.315Z,21.90
2018-04-22T01:38:40.926Z,22.43
2018-04-22T01:41:08.523Z,23.23
2018-04-22T01:43:36.913Z,23.37
2018-04-22T01:46:04.530Z,24.57
2018-04-22T01:48:32.153Z,23.87
2018-04-22T01:51:00.015Z,23.77
2018-04-22T01:53:27.636Z,22.43
2018-04-22T01:55:55.228Z,23.13
2018-04-22T01:58:22.815Z,22.23
2018-04-22T02:00:50.420Z,23.70
2018-04-22T02:03:18.780Z,23.60
2018-04-22T02:05:46.413Z,23.00
2018-04-22T02:08:14.000Z,22.70
2018-04-22T02:10:41.624Z,23.50
2018-04-22T02:13:09.222Z,22.63
2018-04-22T02:15:36.853Z,23.23
2018-04-22T02:18:04.456Z,23.50
2018-04-22T02:20:32.048Z,23.07
2018-04-22T02:22:59.669Z,25.07
2018-04-22T02:25:27.283Z,23.07
2018-04-22T02:27:54.908Z,23.30
2018-04-22T02:30:23.268Z,23.97
2018-04-22T02:32:50.912Z,23.20
2018-04-22T02:35:18.508Z,24.17
2018-04-22T02:37:46.905Z,23.60
2018-04-22T02:40:15.264Z,24.47
2018-04-22T02:42:42.877Z,23.90
2018-04-22T02:45:10.505Z,24.30
2018-04-22T02:47:38.856Z,24.80
2018-04-22T02:50:06.483Z,24.20
2018-04-22T02:52:34.068Z,24.00
2018-04-22T02:55:01.672Z,23.63
2018-04-22T02:57:29.285Z,23.67
2018-04-22T02:59:56.915Z,24.33
2018-04-22T03:02:24.507Z,24.90
2018-04-22T03:04:52.092Z,23.67
2018-04-22T03:07:19.720Z,24.70
2018-04-22T03:09:47.313Z,23.63
2018-04-22T03:12:14.940Z,24.20
2018-04-22T03:14:42.535Z,23.37
2018-04-22T03:17:10.920Z,23.27
2018-04-22T03:19:39.276Z,23.13
2018-04-22T03:22:06.863Z,23.00
2018-04-22T03:24:35.244Z,23.73
2018-04-22T03:27:03.606Z,23.13
2018-04-22T03:29:31.225Z,24.23
2018-04-22T03:31:58.816Z,23.17
2018-04-22T03:34:26.439Z,24.10
2018-04-22T03:36:54.023Z,23.40
2018-04-22T03:39:21.668Z,23.67
2018-04-22T03:41:49.290Z,23.03
2018-04-22T03:44:17.653Z,24.50
2018-04-22T03:46:45.271Z,23.33
2018-04-22T03:49:12.892Z,22.70
2018-04-22T03:51:41.284Z,25.60
2018-04-22T03:54:08.880Z,24.53
2018-04-22T03:56:36.515Z,23.73
2018-04-22T03:59:04.120Z,24.83
2018-04-22T04:01:31.741Z,24.43
2018-04-22T04:03:59.349Z,23.13
2018-04-22T04:06:26.946Z,23.50
2018-04-22T04:08:55.323Z,24.00
2018-04-22T04:11:22.925Z,23.33
2018-04-22T04:13:50.871Z,24.40
2018-04-22T04:16:18.470Z,24.70
2018-04-22T04:18:58.646Z,25.20
2018-04-22T04:21:39.073Z,24.20
2018-04-22T04:27:41.190Z,25.50
2018-04-22T04:30:09.106Z,24.73
2018-04-22T04:32:36.709Z,25.10
2018-04-22T04:35:04.455Z,25.60
2018-04-22T04:37:32.068Z,25.80
2018-04-22T04:40:00.434Z,25.23
2018-04-22T04:42:28.054Z,26.03
2018-04-22T04:44:55.645Z,25.33
2018-04-22T04:47:27.979Z,25.70
2018-04-22T04:49:55.572Z,26.07
2018-04-22T04:52:23.193Z,24.40
2018-04-22T04:54:50.787Z,25.50
2018-04-22T04:57:18.418Z,25.00
2018-04-22T04:59:46.016Z,24.97
2018-04-22T05:02:13.634Z,23.20
2018-04-22T05:04:41.248Z,25.43
2018-04-22T05:07:08.893Z,24.73
2018-04-22T05:09:41.000Z,24.67
2018-04-22T05:12:09.355Z,24.10
2018-04-22T05:14:37.330Z,23.10
2018-04-22T05:17:04.953Z,24.63
2018-04-22T05:19:32.680Z,26.43
2018-04-22T05:22:00.306Z,25.00
2018-04-22T05:24:28.059Z,24.70
2018-04-22T05:26:55.667Z,24.73
2018-04-22T05:29:23.567Z,24.77
2018-04-22T05:31:51.210Z,24.17
2018-04-22T05:34:19.176Z,25.53
2018-04-22T05:36:46.784Z,22.20
2018-04-22T05:39:14.420Z,25.70
2018-04-22T05:41:42.061Z,24.30
2018-04-22T05:44:10.399Z,24.90
2018-04-22T05:46:38.017Z,23.90
2018-04-22T05:49:05.608Z,25.67
2018-04-22T05:51:33.220Z,24.10
2018-04-22T05:54:00.817Z,24.43
2018-04-22T05:56:28.453Z,23.73
2018-04-22T05:58:56.052Z,22.73
2018-04-22T06:01:23.779Z,23.97
2018-04-22T06:03:51.415Z,23.50
2018-04-22T06:06:20.017Z,24.30
2018-04-22T06:08:47.627Z,24.33
2018-04-22T06:11:15.215Z,22.40
2018-04-22T06:13:43.619Z,23.17
2018-04-22T06:16:11.422Z,23.70
2018-04-22T06:18:39.028Z,22.63
2018-04-22T06:21:06.688Z,21.90
2018-04-22T06:23:35.056Z,21.60
2018-04-22T06:26:03.438Z,22.67
2018-04-22T06:28:37.560Z,22.40
2018-04-22T06:31:05.952Z,21.97
2018-04-22T06:33:33.843Z,20.63
2018-04-22T06:36:01.491Z,20.97
2018-04-22T06:38:29.544Z,22.67
2018-04-22T06:40:57.979Z,20.60
2018-04-22T06:43:25.612Z,19.23
2018-04-22T06:45:56.892Z,19.53
2018-04-22T06:48:24.504Z,21.30
2018-04-22T06:50:53.060Z,22.13
2018-04-22T06:53:21.664Z,22.17
2018-04-22T06:55:49.268Z,23.00
2018-04-22T06:58:16.880Z,23.80
2018-04-22T07:00:45.272Z,23.07
2018-04-22T07:03:12.856Z,23.53
2018-04-22T07:05:40.475Z,22.40
2018-04-22T07:08:08.834Z,20.43
2018-04-22T07:10:36.455Z,18.17
2018-04-22T07:13:04.050Z,18.90
2018-04-22T07:15:31.664Z,19.70
2018-04-22T07:17:59.286Z,16.93
2018-04-22T07:20:26.909Z,17.10
2018-04-22T07:22:54.511Z,16.67
2018-04-22T07:25:22.144Z,14.43
2018-04-22T07:27:49.764Z,13.87
2018-04-22T07:30:17.358Z,13.47
2018-04-22T07:32:44.976Z,13.83
2018-04-22T07:35:13.331Z,13.37
2018-04-22T07:37:40.967Z,14.60
2018-04-22T07:40:08.568Z,14.03
2018-04-22T07:42:37.000Z,14.20
2018-04-22T07:45:04.568Z,14.30
2018-04-22T07:47:32.169Z,13.93
2018-04-22T07:50:00.543Z,15.43
2018-04-22T07:52:28.912Z,14.43
2018-04-22T07:54:56.528Z,14.43
2018-04-22T07:57:24.130Z,14.10
2018-04-22T07:59:51.819Z,12.23
2018-04-22T08:02:20.197Z,12.57
2018-04-22T08:04:48.569Z,14.03
2018-04-22T08:07:16.927Z,12.73
2018-04-22T08:09:44.526Z,14.00
2018-04-22T08:12:12.151Z,13.47
2018-04-22T08:14:40.131Z,13.40
2018-04-22T08:17:07.811Z,11.73
2018-04-22T08:19:36.163Z,13.80
2018-04-22T08:22:03.775Z,12.20
2018-04-22T08:24:31.668Z,11.30
2018-04-22T08:26:59.291Z,12.33
2018-04-22T08:29:26.879Z,11.57
2018-04-22T08:31:54.467Z,12.43
2018-04-22T08:34:22.104Z,11.60
2018-04-22T08:36:49.725Z,11.00
2018-04-22T08:39:21.620Z,9.23
2018-04-22T08:41:49.220Z,11.37
2018-04-22T08:44:16.835Z,10.80
2018-04-22T08:46:44.459Z,10.00
2018-04-22T08:49:12.858Z,11.43
2018-04-22T08:51:40.999Z,9.83
2018-04-22T08:54:09.371Z,11.57
2018-04-22T08:56:37.037Z,11.40
2018-04-22T08:59:04.651Z,11.80
2018-04-22T09:01:34.220Z,10.23
2018-04-22T09:04:02.572Z,11.53
2018-04-22T09:06:30.185Z,10.60
2018-04-22T09:08:57.772Z,10.90
2018-04-22T09:11:25.395Z,11.20
2018-04-22T09:13:53.747Z,11.17
2018-04-22T09:16:21.417Z,11.80
2018-04-22T09:18:49.004Z,10.63
2018-04-22T09:21:16.599Z,11.50
2018-04-22T09:23:44.211Z,10.40
2018-04-22T09:26:15.742Z,10.47
2018-04-22T09:28:45.364Z,10.40
2018-04-22T09:31:13.731Z,10.77
2018-04-22T09:33:45.115Z,10.53
2018-04-22T09:36:15.903Z,10.20
2018-04-22T09:38:43.493Z,10.57
2018-04-22T09:41:11.893Z,10.60
2018-04-22T09:43:39.511Z,10.53
2018-04-22T09:46:09.135Z,10.60
2018-04-22T09:48:37.487Z,9.93
2018-04-22T09:51:05.110Z,10.50
2018-04-22T09:53:32.693Z,12.30
2018-04-22T09:56:00.283Z,9.70
2018-04-22T09:58:27.897Z,10.07
2018-04-22T10:01:01.235Z,10.67
2018-04-22T10:03:31.105Z,11.53
2018-04-22T10:06:01.543Z,10.00
2018-04-22T10:08:29.155Z,10.87
2018-04-22T10:10:57.547Z,12.13
2018-04-22T10:13:25.185Z,10.07
2018-04-22T10:15:52.780Z,10.43
2018-04-22T10:18:20.373Z,10.93
2018-04-22T10:20:48.000Z,10.00
2018-04-22T10:23:15.628Z,10.33
2018-04-22T10:25:43.247Z,11.07
2018-04-22T10:31:04.478Z,11.17
2018-04-22T10:33:34.020Z,12.00
2018-04-22T10:36:01.633Z,10.63
2018-04-22T10:38:31.265Z,11.30
2018-04-22T10:40:58.878Z,10.70
2018-04-22T10:43:27.260Z,11.20
2018-04-22T10:45:57.549Z,10.90
2018-04-22T10:48:25.933Z,11.20
2018-04-22T10:50:53.577Z,10.70
2018-04-22T10:53:21.218Z,12.23
2018-04-22T10:55:48.820Z,11.47
2018-04-22T10:58:16.425Z,12.03
2018-04-22T11:00:44.937Z,11.47
2018-04-22T11:03:12.547Z,13.90
2018-04-22T11:05:40.936Z,11.40
2018-04-22T11:08:09.331Z,11.13
2018-04-22T11:10:36.967Z,11.60
2018-04-22T11:13:05.323Z,13.20
2018-04-22T11:15:32.911Z,11.20
2018-04-22T11:18:01.297Z,11.17
2018-04-22T11:20:29.671Z,13.27
2018-04-22T11:22:58.097Z,11.70
2018-04-22T11:25:25.740Z,9.50
2018-04-22T11:27:53.329Z,9.70
2018-04-22T11:30:20.937Z,9.50
2018-04-22T11:32:48.524Z,8.90
2018-04-22T11:35:16.151Z,8.97
2018-04-22T11:37:44.551Z,8.30
2018-04-22T11:40:12.140Z,8.00
2018-04-22T11:42:39.756Z,7.77
2018-04-22T11:45:08.108Z,7.37
2018-04-22T11:47:35.745Z,7.93
2018-04-22T11:50:04.143Z,7.83
2018-04-22T11:52:31.755Z,7.37
2018-04-22T11:55:00.466Z,7.77
2018-04-22T11:57:28.088Z,7.80
2018-04-22T11:59:57.470Z,7.57
2018-04-22T12:02:25.885Z,7.53
2018-04-22T12:04:53.496Z,7.30
2018-04-22T12:07:21.088Z,7.87
2018-04-22T12:09:49.708Z,6.87
2018-04-22T12:12:17.298Z,7.40
2018-04-22T12:14:48.178Z,6.93
2018-04-22T12:17:16.521Z,7.00
2018-04-22T12:19:44.164Z,7.20
2018-04-22T12:22:11.747Z,7.27
2018-04-22T12:24:42.688Z,7.17
2018-04-22T12:27:10.327Z,7.03
2018-04-22T12:29:37.971Z,7.63
2018-04-22T12:32:05.586Z,7.40
2018-04-22T12:34:33.935Z,7.33
2018-04-22T12:37:01.537Z,6.70
2018-04-22T12:39:29.882Z,6.57
2018-04-22T12:42:06.056Z,6.80
2018-04-22T12:44:33.635Z,7.03
2018-04-22T12:47:01.987Z,6.93
2018-04-22T12:49:29.647Z,6.70
2018-04-22T12:51:58.807Z,6.80
2018-04-22T12:54:26.415Z,6.53
2018-04-22T12:56:54.664Z,6.43
2018-04-22T12:59:22.317Z,6.73
2018-04-22T13:01:49.912Z,7.00
2018-04-22T13:04:18.305Z,5.90
2018-04-22T13:06:46.691Z,6.37
2018-04-22T13:09:15.049Z,5.83
2018-04-22T13:11:48.428Z,6.80
2018-04-22T13:14:16.019Z,7.00
2018-04-22T13:16:44.388Z,6.60
2018-04-22T13:19:12.772Z,6.33
2018-04-22T13:21:41.155Z,6.50
2018-04-22T13:24:09.514Z,6.33
2018-04-22T13:26:39.116Z,6.37
2018-04-22T13:29:06.740Z,6.30
2018-04-22T13:31:34.392Z,6.50
2018-04-22T13:34:02.737Z,6.37
2018-04-22T13:36:30.327Z,5.90
2018-04-22T13:38:58.910Z,6.43
2018-04-22T13:41:26.497Z,6.30
2018-04-22T13:43:54.121Z,5.50
2018-04-22T13:46:22.507Z,6.40
2018-04-22T13:48:50.856Z,6.90
2018-04-22T13:51:18.467Z,5.40
2018-04-22T13:53:46.108Z,6.53
2018-04-22T13:56:13.723Z,5.97
2018-04-22T13:58:41.317Z,6.10
2018-04-22T14:01:08.932Z,6.00
2018-04-22T14:03:36.523Z,5.87
2018-04-22T14:06:04.122Z,5.77
2018-04-22T14:08:31.736Z,6.40
2018-04-22T14:10:59.340Z,5.90
2018-04-22T14:13:26.951Z,6.57
2018-04-22T14:15:54.781Z,5.90
2018-04-22T14:18:22.407Z,6.00
2018-04-22T14:20:50.760Z,6.43
2018-04-22T14:23:18.348Z,6.07
2018-04-22T14:25:46.731Z,6.30
2018-04-22T14:28:15.085Z,6.03
2018-04-22T14:30:42.693Z,6.20
2018-04-22T14:33:10.295Z,5.67
2018-04-22T14:35:37.919Z,6.03
2018-04-22T14:38:05.554Z,6.40
2018-04-22T14:40:33.935Z,5.77
2018-04-22T14:43:02.292Z,5.87
2018-04-22T14:45:41.880Z,5.60
2018-04-22T14:48:09.468Z,6.37
2018-04-22T14:50:37.102Z,5.93
2018-04-22T14:53:04.708Z,6.00
2018-04-22T14:55:32.305Z,5.67
2018-04-22T14:58:00.689Z,5.90
2018-04-22T15:00:28.278Z,6.33
2018-04-22T15:02:55.886Z,5.87
2018-04-22T15:05:24.248Z,5.80
2018-04-22T15:07:51.867Z,5.93
2018-04-22T15:10:19.465Z,5.97
2018-04-22T15:12:47.061Z,6.40
2018-04-22T15:15:15.440Z,5.60
2018-04-22T15:17:43.788Z,5.60
2018-04-22T15:20:11.393Z,5.40
2018-04-22T15:22:39.000Z,7.70
2018-04-22T15:25:06.614Z,5.90
2018-04-22T15:27:34.228Z,7.40
2018-04-22T15:30:06.621Z,5.90
2018-04-22T15:32:34.211Z,5.40
2018-04-22T15:35:02.740Z,6.13
2018-04-22T15:37:32.374Z,6.00
2018-04-22T15:39:59.961Z,5.50
2018-04-22T15:42:27.581Z,6.27
2018-04-22T15:44:57.908Z,6.10
2018-04-22T15:47:27.520Z,6.90
2018-04-22T15:49:57.116Z,6.00
2018-04-22T15:52:25.720Z,6.97
2018-04-22T15:54:53.300Z,6.40
2018-04-22T15:57:22.671Z,7.47
2018-04-22T15:59:50.341Z,7.13
2018-04-22T16:02:17.905Z,7.33
2018-04-22T16:04:45.507Z,5.70
2018-04-22T16:07:13.137Z,6.10
2018-04-22T16:09:41.507Z,6.00
2018-04-22T16:12:10.888Z,5.80
2018-04-22T16:14:38.585Z,6.47
2018-04-22T16:17:06.119Z,6.57
2018-04-22T16:19:33.709Z,11.30
2018-04-22T16:22:02.084Z,5.97
2018-04-22T16:24:30.455Z,6.17
2018-04-22T16:26:58.844Z,6.47
2018-04-22T16:29:27.207Z,12.80
2018-04-22T16:31:54.821Z,8.33
2018-04-22T16:34:22.403Z,9.00
2018-04-22T16:36:50.018Z,7.27
2018-04-22T16:39:17.599Z,6.20
2018-04-22T16:41:45.188Z,23.13
2018-04-22T16:44:12.840Z,13.80
2018-04-22T16:46:40.437Z,29.20
2018-04-22T16:49:08.839Z,18.73
2018-04-22T16:51:36.469Z,11.57
2018-04-22T16:54:11.401Z,8.13
2018-04-22T16:56:39.056Z,6.77
2018-04-22T16:59:06.686Z,6.47
2018-04-22T17:01:34.275Z,8.90
2018-04-22T17:04:01.874Z,8.47
2018-04-22T17:06:29.513Z,8.10
2018-04-22T17:08:57.095Z,7.97
2018-04-22T17:11:25.479Z,7.13
2018-04-22T17:13:53.508Z,6.80
2018-04-22T17:16:21.152Z,7.47
2018-04-22T17:18:48.784Z,6.80
2018-04-22T17:21:16.392Z,6.93
2018-04-22T17:23:45.015Z,7.63
2018-04-22T17:26:13.447Z,7.53
2018-04-22T17:28:41.065Z,7.60
2018-04-22T17:31:08.667Z,6.63
2018-04-22T17:33:37.266Z,7.20
2018-04-22T17:36:04.881Z,7.50
2018-04-22T17:38:32.484Z,7.30
2018-04-22T17:41:00.128Z,7.40
2018-04-22T17:43:27.720Z,8.10
2018-04-22T17:45:55.341Z,7.33
2018-04-22T17:48:22.951Z,6.57
2018-04-22T17:50:56.068Z,6.47
2018-04-22T17:53:23.664Z,6.63
2018-04-22T17:55:51.265Z,7.13
2018-04-22T17:58:19.644Z,6.07
2018-04-22T18:00:48.007Z,7.20
2018-04-22T18:03:15.615Z,7.57
2018-04-22T18:05:43.240Z,7.73
2018-04-22T18:08:10.871Z,6.90
2018-04-22T18:10:38.458Z,6.70
2018-04-22T18:13:06.079Z,7.07
2018-04-22T18:15:33.659Z,5.63
2018-04-22T18:18:01.552Z,5.50
2018-04-22T18:20:29.945Z,6.00
2018-04-22T18:22:58.302Z,4.90
2018-04-22T18:25:25.903Z,5.53
2018-04-22T18:27:54.128Z,5.30
2018-04-22T18:30:21.886Z,5.20
2018-04-22T18:32:49.404Z,5.13
2018-04-22T18:35:17.035Z,4.90
2018-04-22T18:37:45.408Z,5.30
2018-04-22T18:40:13.973Z,5.40
2018-04-22T18:42:41.588Z,5.03
2018-04-22T18:45:09.187Z,4.93
2018-04-22T18:47:36.792Z,4.90
2018-04-22T18:50:07.186Z,4.70
2018-04-22T18:52:34.800Z,4.53
2018-04-22T18:55:02.565Z,4.93
2018-04-22T18:57:30.233Z,4.90
2018-04-22T18:59:57.935Z,5.07
2018-04-22T19:02:29.970Z,5.00
2018-04-22T19:04:57.568Z,4.47
2018-04-22T19:07:25.168Z,4.63
2018-04-22T19:09:52.791Z,4.80
2018-04-22T19:12:20.378Z,4.73
2018-04-22T19:14:48.763Z,4.80
2018-04-22T19:17:16.364Z,4.70
2018-04-22T19:19:46.014Z,4.50
2018-04-22T19:22:14.036Z,4.70
2018-04-22T19:24:42.660Z,4.60
2018-04-22T19:27:10.251Z,4.70
2018-04-22T19:29:38.793Z,4.90
2018-04-22T19:32:06.418Z,4.77
2018-04-22T19:34:34.008Z,4.80
2018-04-22T19:37:01.605Z,4.90
2018-04-22T19:39:30.108Z,4.50
2018-04-22T19:41:57.746Z,5.17
2018-04-22T19:44:30.800Z,5.10
2018-04-22T19:46:58.442Z,4.93
2018-04-22T19:49:27.045Z,5.20
2018-04-22T19:51:54.627Z,5.03
2018-04-22T19:54:23.218Z,5.30
2018-04-22T19:56:51.567Z,5.47
2018-04-22T19:59:20.187Z,5.63
2018-04-22T20:01:48.540Z,5.13
2018-04-22T20:04:16.148Z,4.63
2018-04-22T20:06:43.732Z,5.20
2018-04-22T20:09:11.351Z,5.43
2018-04-22T20:11:40.930Z,5.20
2018-04-22T20:14:08.518Z,5.50
2018-04-22T20:16:36.919Z,5.00
2018-04-22T20:19:04.785Z,5.00
2018-04-22T20:21:32.392Z,5.40
2018-04-22T20:23:59.985Z,5.47
2018-04-22T20:26:28.368Z,5.20
2018-04-22T20:28:56.720Z,6.00
2018-04-22T20:31:28.701Z,5.53
2018-04-22T20:33:57.065Z,5.87
2018-04-22T20:36:24.655Z,6.00
2018-04-22T20:38:53.043Z,6.37
2018-04-22T20:41:21.564Z,5.67
2018-04-22T20:43:49.167Z,5.73
2018-04-22T20:46:17.532Z,6.00
2018-04-22T20:48:45.145Z,5.70
2018-04-22T20:51:12.726Z,5.90
2018-04-22T20:53:40.344Z,6.23
2018-04-22T20:56:08.683Z,6.37
2018-04-22T20:58:36.280Z,5.67
2018-04-22T21:01:04.652Z,5.50
2018-04-22T21:03:33.056Z,5.50
2018-04-22T21:06:01.397Z,6.00
2018-04-22T21:08:29.011Z,5.43
2018-04-22T21:10:56.617Z,6.30
2018-04-22T21:13:24.203Z,5.73
2018-04-22T21:15:51.853Z,5.67
2018-04-22T21:18:20.207Z,5.63
2018-04-22T21:20:48.221Z,5.87
2018-04-22T21:23:15.831Z,5.83
2018-04-22T21:25:43.411Z,6.30
2018-04-22T21:28:11.023Z,4.60
2018-04-22T21:30:38.600Z,4.30
2018-04-22T21:33:06.185Z,4.50
2018-04-22T21:35:33.797Z,4.63
2018-04-22T21:38:01.380Z,4.53
2018-04-22T21:40:29.033Z,4.80
2018-04-22T21:42:56.621Z,4.73
2018-04-22T21:45:24.267Z,4.83
2018-04-22T21:47:51.855Z,4.40
2018-04-22T21:50:19.439Z,4.90
2018-04-22T21:52:47.803Z,4.90
2018-04-22T21:55:16.152Z,4.80
2018-04-22T21:57:44.102Z,4.90
2018-04-22T22:00:11.691Z,4.97
2018-04-22T22:02:39.308Z,4.73
2018-04-22T22:05:06.904Z,4.87
2018-04-22T22:07:34.860Z,4.80
2018-04-22T22:10:02.465Z,4.43
2018-04-22T22:12:30.816Z,4.57
2018-04-22T22:14:58.459Z,4.50
2018-04-22T22:17:26.031Z,4.73
2018-04-22T22:19:53.641Z,4.50
2018-04-22T22:22:21.992Z,5.73
2018-04-22T22:24:50.551Z,4.83
2018-04-22T22:27:18.159Z,5.00
2018-04-22T22:29:46.523Z,4.50
2018-04-22T22:32:14.147Z,4.80
2018-04-22T22:34:41.747Z,4.57
2018-04-22T22:37:09.348Z,4.20
2018-04-22T22:39:37.023Z,4.80
2018-04-22T22:42:04.638Z,4.87
2018-04-22T22:44:32.990Z,4.63
2018-04-22T22:47:00.580Z,4.53
2018-04-22T22:49:28.953Z,4.40
2018-04-22T22:51:57.312Z,4.43
2018-04-22T22:54:24.919Z,4.47
2018-04-22T22:56:52.507Z,4.00
2018-04-22T22:59:20.120Z,4.73
2018-04-22T23:01:48.475Z,4.23
2018-04-22T23:04:16.066Z,4.00
2018-04-22T23:06:43.675Z,4.10
2018-04-22T23:09:17.978Z,4.03
2018-04-22T23:11:45.592Z,3.80
2018-04-22T23:14:13.949Z,4.17
2018-04-22T23:16:41.567Z,4.20
2018-04-22T23:19:09.144Z,4.67
2018-04-22T23:21:36.772Z,4.70
2018-04-22T23:24:05.136Z,4.03
2018-04-22T23:26:33.480Z,3.70
2018-04-22T23:29:01.093Z,3.93
2018-04-22T23:31:28.676Z,4.67
2018-04-22T23:33:56.288Z,4.30
2018-04-22T23:36:23.872Z,4.53
2018-04-22T23:38:52.242Z,4.60
2018-04-22T23:41:20.601Z,5.10
2018-04-22T23:43:48.192Z,4.33
2018-04-22T23:46:15.811Z,4.40
2018-04-22T23:48:43.391Z,4.40
2018-04-22T23:51:11.772Z,4.80
2018-04-22T23:53:40.119Z,4.73
2018-04-22T23:56:07.724Z,4.50
2018-04-22T23:58:36.072Z,4.30
